createdAt,value
2023-02-25T00:02:41.865Z,5.95
2023-02-25T00:06:39.877Z,5.90
2023-02-25T00:10:37.846Z,5.89
2023-02-25T00:14:38.281Z,5.94
2023-02-25T00:18:37.713Z,5.94
2023-02-25T00:22:35.778Z,5.95
2023-02-25T00:26:34.780Z,5.97
2023-02-25T00:30:32.701Z,5.96
2023-02-25T00:34:30.743Z,5.96
2023-02-25T00:38:29.751Z,5.91
2023-02-25T00:42:33.702Z,5.90
2023-02-25T00:46:32.872Z,5.91
2023-02-25T00:50:30.693Z,6.00
2023-02-25T00:54:30.747Z,6.08
2023-02-25T00:58:28.713Z,6.07
2023-02-25T01:02:27.749Z,6.04
2023-02-25T01:06:25.684Z,5.99
2023-02-25T01:10:24.667Z,5.96
2023-02-25T01:14:26.675Z,5.89
2023-02-25T01:18:26.727Z,5.80
2023-02-25T01:22:24.650Z,5.71
2023-02-25T01:26:24.946Z,5.66
2023-02-25T01:30:22.654Z,5.54
2023-02-25T01:34:22.670Z,5.48
2023-02-25T01:38:20.629Z,5.45
2023-02-25T01:42:27.650Z,5.43
2023-02-25T01:46:26.006Z,5.44
2023-02-25T01:50:23.839Z,5.46
2023-02-25T01:54:23.642Z,5.47
2023-02-25T01:58:22.652Z,5.50
2023-02-25T02:02:23.699Z,5.53
2023-02-25T02:06:35.616Z,5.63
2023-02-25T02:10:33.588Z,5.70
2023-02-25T02:14:35.655Z,5.66
2023-02-25T02:18:35.604Z,5.62
2023-02-25T02:22:48.638Z,5.57
2023-02-25T02:27:04.582Z,5.55
2023-02-25T02:31:33.660Z,5.51
2023-02-25T02:35:41.529Z,5.52
2023-02-25T02:39:43.615Z,5.53
2023-02-25T02:44:15.587Z,5.49
2023-02-25T02:48:17.665Z,5.45
2023-02-25T02:52:26.510Z,5.41
2023-02-25T02:56:28.609Z,5.37
2023-02-25T03:00:33.554Z,5.33
2023-02-25T03:04:35.624Z,5.36
2023-02-25T03:08:43.516Z,5.33
2023-02-25T03:12:41.510Z,5.28
2023-02-25T03:16:45.579Z,5.30
2023-02-25T03:20:50.532Z,5.34
2023-02-25T03:25:08.511Z,5.38
2023-02-25T03:29:06.532Z,5.47
2023-02-25T03:33:10.497Z,5.49
2023-02-25T03:37:13.548Z,5.50
2023-02-25T03:41:17.566Z,5.53
2023-02-25T03:45:19.522Z,5.56
2023-02-25T03:49:18.704Z,5.57
2023-02-25T03:53:16.541Z,5.57
2023-02-25T03:57:23.509Z,5.54
2023-02-25T04:01:25.536Z,5.50
2023-02-25T04:05:23.511Z,5.46
2023-02-25T04:09:21.526Z,5.47
2023-02-25T04:13:19.502Z,5.48
2023-02-25T04:17:18.501Z,5.47
2023-02-25T04:21:16.483Z,5.48
2023-02-25T04:25:14.458Z,5.52
2023-02-25T04:29:12.425Z,5.60
2023-02-25T04:33:10.523Z,5.51
2023-02-25T04:37:08.409Z,5.27
2023-02-25T04:41:06.427Z,5.06
2023-02-25T04:45:04.518Z,4.92
2023-02-25T04:49:02.413Z,4.84
2023-02-25T04:53:00.388Z,4.83
2023-02-25T04:56:58.411Z,4.86
2023-02-25T05:00:56.371Z,4.91
2023-02-25T05:04:55.436Z,4.90
2023-02-25T05:08:53.403Z,4.90
2023-02-25T05:12:51.435Z,4.90
2023-02-25T05:16:49.501Z,4.92
2023-02-25T05:20:47.509Z,4.92
2023-02-25T05:24:45.332Z,4.93
2023-02-25T05:28:43.382Z,4.88
2023-02-25T05:32:41.558Z,4.81
2023-02-25T05:36:39.433Z,4.70
2023-02-25T05:40:39.339Z,4.69
2023-02-25T05:44:37.383Z,4.62
2023-02-25T05:48:35.354Z,4.52
2023-02-25T05:52:33.387Z,4.47
2023-02-25T05:56:35.344Z,4.35
2023-02-25T06:00:33.343Z,4.31
2023-02-25T06:04:31.347Z,4.35
2023-02-25T06:08:29.355Z,4.42
2023-02-25T06:12:27.377Z,4.46
2023-02-25T06:16:25.675Z,4.46
2023-02-25T06:20:24.310Z,4.43
2023-02-25T06:24:23.315Z,4.37
2023-02-25T06:28:21.264Z,4.36
2023-02-25T06:32:19.418Z,4.31
2023-02-25T06:36:17.247Z,4.29
2023-02-25T06:40:15.338Z,4.24
2023-02-25T06:44:15.714Z,4.17
2023-02-25T06:48:13.276Z,4.18
2023-02-25T06:52:11.354Z,4.18
2023-02-25T06:56:09.290Z,4.14
2023-02-25T07:00:07.303Z,4.11
2023-02-25T07:04:05.368Z,4.11
2023-02-25T07:08:03.268Z,4.06
2023-02-25T07:12:01.246Z,4.06
2023-02-25T07:15:59.237Z,4.06
2023-02-25T07:19:58.322Z,4.11
2023-02-25T07:23:57.204Z,4.07
2023-02-25T07:27:57.189Z,4.14
2023-02-25T07:31:55.490Z,4.13
2023-02-25T07:35:53.311Z,4.18
2023-02-25T07:39:53.247Z,4.26
2023-02-25T07:43:51.326Z,4.22
2023-02-25T07:47:49.219Z,4.15
2023-02-25T07:51:48.302Z,4.10
2023-02-25T07:55:46.278Z,4.00
2023-02-25T07:59:44.177Z,4.00
2023-02-25T08:03:42.166Z,4.06
2023-02-25T08:07:40.232Z,4.18
2023-02-25T08:11:39.110Z,4.29
2023-02-25T08:15:39.217Z,4.32
2023-02-25T08:19:37.129Z,4.25
2023-02-25T08:23:35.309Z,4.23
2023-02-25T08:27:33.115Z,4.18
2023-02-25T08:31:31.282Z,4.14
2023-02-25T08:35:29.091Z,4.10
2023-02-25T08:39:27.082Z,4.04
2023-02-25T08:43:26.134Z,4.04
2023-02-25T08:47:24.115Z,3.99
2023-02-25T08:51:24.468Z,4.04
2023-02-25T08:55:22.113Z,4.22
2023-02-25T08:59:21.063Z,4.30
2023-02-25T09:03:19.052Z,4.37
2023-02-25T09:07:17.056Z,4.43
2023-02-25T09:11:15.089Z,4.56
2023-02-25T09:15:13.071Z,4.78
2023-02-25T09:19:11.112Z,5.14
2023-02-25T09:23:09.186Z,5.48
2023-02-25T09:27:07.234Z,5.62
2023-02-25T09:31:06.139Z,5.78
2023-02-25T09:35:05.165Z,6.00
2023-02-25T09:39:05.202Z,6.12
2023-02-25T09:43:24.167Z,6.16
2023-02-25T09:47:32.036Z,6.04
2023-02-25T09:51:38.049Z,5.93
2023-02-25T09:55:49.129Z,5.81
2023-02-25T09:59:48.105Z,5.96
2023-02-25T10:04:21.062Z,6.17
2023-02-25T10:08:29.081Z,6.41
2023-02-25T10:12:48.996Z,6.59
2023-02-25T10:16:59.015Z,6.81
2023-02-25T10:21:23.410Z,6.78
2023-02-25T10:25:29.093Z,6.66
2023-02-25T10:29:35.980Z,6.58
2023-02-25T10:33:35.091Z,6.77
2023-02-25T10:37:48.141Z,6.85
2023-02-25T10:41:46.060Z,6.81
2023-02-25T10:45:46.089Z,6.71
2023-02-25T10:49:47.959Z,6.63
2023-02-25T10:53:46.933Z,6.73
2023-02-25T10:57:19.867Z,6.73
2023-02-25T11:00:44.404Z,6.88
2023-02-25T11:04:14.720Z,7.06
2023-02-25T11:07:38.873Z,7.13
2023-02-25T11:11:07.270Z,7.41
2023-02-25T11:14:34.003Z,7.50
2023-02-25T11:18:13.030Z,7.45
2023-02-25T11:21:39.460Z,7.41
2023-02-25T11:25:08.412Z,7.53
2023-02-25T11:28:36.998Z,7.68
2023-02-25T11:32:14.790Z,7.84
2023-02-25T11:35:40.233Z,8.09
2023-02-25T11:39:18.569Z,8.34
2023-02-25T11:42:42.474Z,8.34
2023-02-25T11:46:22.492Z,8.20
2023-02-25T11:49:58.768Z,8.17
2023-02-25T11:53:35.912Z,7.97
2023-02-25T11:57:10.756Z,7.72
2023-02-25T12:00:52.128Z,7.51
2023-02-25T12:04:31.160Z,7.21
2023-02-25T12:08:40.314Z,7.14
2023-02-25T12:12:52.838Z,7.75
2023-02-25T12:17:12.894Z,8.20
2023-02-25T12:20:45.774Z,8.02
2023-02-25T12:24:37.053Z,8.07
2023-02-25T12:28:31.236Z,8.05
2023-02-25T12:32:41.792Z,7.72
2023-02-25T12:36:54.809Z,7.27
2023-02-25T12:41:00.997Z,7.08
2023-02-25T12:45:16.998Z,7.31
2023-02-25T12:49:29.796Z,7.16
2023-02-25T12:53:39.733Z,6.66
2023-02-25T12:57:58.808Z,6.15
2023-02-25T13:02:09.777Z,5.88
2023-02-25T13:06:37.762Z,5.87
2023-02-25T13:10:56.758Z,5.80
2023-02-25T13:15:09.744Z,5.77
2023-02-25T13:19:45.829Z,5.70
2023-02-25T13:24:08.741Z,6.01
2023-02-25T13:28:28.747Z,6.52
2023-02-25T13:33:08.822Z,6.82
2023-02-25T13:37:17.853Z,6.90
2023-02-25T13:41:39.842Z,6.91
2023-02-25T13:45:56.874Z,7.02
2023-02-25T13:50:25.839Z,6.87
2023-02-25T13:54:38.758Z,6.89
2023-02-25T13:59:06.737Z,7.15
2023-02-25T14:03:22.679Z,7.32
2023-02-25T14:07:41.727Z,7.56
2023-02-25T14:12:11.595Z,7.73
2023-02-25T14:16:19.712Z,7.65
2023-02-25T14:20:32.675Z,7.34
2023-02-25T14:25:09.652Z,6.99
2023-02-25T14:29:42.687Z,6.77
2023-02-25T14:33:48.716Z,6.56
2023-02-25T14:38:16.628Z,6.26
2023-02-25T14:42:22.787Z,5.20
2023-02-25T14:46:46.641Z,4.28
2023-02-25T14:50:56.601Z,3.73
2023-02-25T14:55:21.655Z,3.58
2023-02-25T15:00:09.660Z,3.75
2023-02-25T15:04:46.620Z,3.77
2023-02-25T15:09:02.717Z,3.76
2023-02-25T15:13:13.607Z,3.75
2023-02-25T15:17:45.659Z,3.77
2023-02-25T15:21:46.655Z,3.78
2023-02-25T15:25:52.603Z,3.72
2023-02-25T15:29:50.578Z,3.70
2023-02-25T15:34:06.682Z,3.66
2023-02-25T15:38:04.605Z,3.58
2023-02-25T15:42:16.560Z,3.53
2023-02-25T15:46:23.599Z,3.46
2023-02-25T15:50:22.640Z,3.42
2023-02-25T15:54:20.586Z,3.47
2023-02-25T15:58:40.131Z,3.55
2023-02-25T16:02:45.565Z,3.58
2023-02-25T16:06:56.629Z,3.56
2023-02-25T16:11:02.505Z,3.56
2023-02-25T16:15:00.583Z,3.48
2023-02-25T16:19:02.508Z,3.40
2023-02-25T16:23:02.592Z,3.32
2023-02-25T16:27:09.602Z,3.24
2023-02-25T16:31:30.544Z,3.21
2023-02-25T16:35:55.344Z,3.17
2023-02-25T16:39:57.516Z,3.15
2023-02-25T16:43:57.512Z,3.17
2023-02-25T16:47:58.471Z,3.21
2023-02-25T16:51:59.481Z,3.22
2023-02-25T16:55:57.590Z,3.21
2023-02-25T16:59:57.533Z,3.22
2023-02-25T17:04:00.495Z,3.21
2023-02-25T17:07:58.471Z,3.19
2023-02-25T17:11:56.461Z,3.17
2023-02-25T17:15:55.460Z,3.15
2023-02-25T17:19:53.533Z,3.09
2023-02-25T17:23:55.509Z,3.08
2023-02-25T17:27:55.547Z,3.10
2023-02-25T17:32:05.515Z,3.14
2023-02-25T17:36:06.447Z,3.07
2023-02-25T17:40:04.404Z,3.04
2023-02-25T17:44:02.450Z,3.06
2023-02-25T17:48:02.434Z,3.10
2023-02-25T17:52:01.440Z,3.09
2023-02-25T17:55:59.414Z,2.97
2023-02-25T18:00:04.518Z,2.86
2023-02-25T18:04:05.818Z,2.84
2023-02-25T18:08:12.604Z,2.87
2023-02-25T18:12:22.462Z,2.91
2023-02-25T18:16:56.390Z,2.92
2023-02-25T18:20:56.372Z,2.88
2023-02-25T18:24:54.384Z,2.88
2023-02-25T18:28:52.309Z,2.87
2023-02-25T18:32:50.671Z,2.86
2023-02-25T18:36:50.363Z,2.87
2023-02-25T18:40:51.380Z,2.83
2023-02-25T18:44:49.318Z,2.78
2023-02-25T18:48:47.315Z,2.81
2023-02-25T18:52:45.311Z,2.86
2023-02-25T18:56:43.304Z,2.93
2023-02-25T19:00:42.275Z,2.92
2023-02-25T19:04:40.414Z,2.94
2023-02-25T19:08:38.268Z,2.97
2023-02-25T19:12:38.286Z,3.03
2023-02-25T19:16:37.320Z,3.05
2023-02-25T19:20:35.409Z,3.02
2023-02-25T19:24:33.530Z,3.00
2023-02-25T19:28:31.308Z,2.97
2023-02-25T19:32:29.363Z,2.98
2023-02-25T19:36:27.269Z,2.98
2023-02-25T19:40:28.258Z,2.99
2023-02-25T19:44:27.264Z,3.01
2023-02-25T19:48:25.221Z,3.06
2023-02-25T19:52:23.218Z,3.10
2023-02-25T19:56:21.260Z,3.14
2023-02-25T20:00:20.227Z,3.11
2023-02-25T20:04:18.385Z,3.10
2023-02-25T20:08:16.271Z,3.14
2023-02-25T20:12:14.190Z,3.15
2023-02-25T20:16:16.237Z,3.15
2023-02-25T20:20:15.321Z,3.08
2023-02-25T20:24:13.519Z,3.01
2023-02-25T20:28:11.392Z,2.99
2023-02-25T20:32:11.314Z,3.02
2023-02-25T20:36:09.190Z,3.04
2023-02-25T20:40:15.251Z,3.09
2023-02-25T20:44:13.246Z,3.10
2023-02-25T20:48:11.214Z,3.12
2023-02-25T20:52:09.109Z,3.01
2023-02-25T20:56:09.237Z,2.99
2023-02-25T21:00:09.191Z,3.00
2023-02-25T21:04:07.191Z,3.04
2023-02-25T21:08:05.122Z,3.08
2023-02-25T21:12:03.271Z,3.05
2023-02-25T21:16:01.153Z,2.97
2023-02-25T21:19:59.197Z,2.91
2023-02-25T21:23:59.081Z,2.82
2023-02-25T21:28:03.314Z,2.79
2023-02-25T21:32:02.086Z,2.75
2023-02-25T21:36:06.160Z,2.77
2023-02-25T21:40:04.080Z,2.76
2023-02-25T21:44:02.114Z,2.79
2023-02-25T21:48:00.358Z,2.81
2023-02-25T21:51:58.114Z,2.83
2023-02-25T21:55:56.082Z,2.83
2023-02-25T21:59:54.108Z,2.89
2023-02-25T22:03:52.162Z,2.94
2023-02-25T22:07:50.137Z,2.98
2023-02-25T22:11:51.028Z,2.97
2023-02-25T22:15:50.100Z,2.96
2023-02-25T22:19:48.087Z,2.94
2023-02-25T22:23:46.077Z,2.92
2023-02-25T22:27:44.002Z,2.89
2023-02-25T22:31:42.155Z,2.85
2023-02-25T22:35:40.027Z,2.87
2023-02-25T22:39:38.006Z,2.93
2023-02-25T22:43:35.988Z,2.94
2023-02-25T22:47:34.002Z,2.94
2023-02-25T22:51:38.967Z,2.94
2023-02-25T22:55:37.075Z,2.93
2023-02-25T22:59:35.079Z,2.95
2023-02-25T23:03:33.013Z,2.97
2023-02-25T23:07:30.969Z,3.01
2023-02-25T23:11:30.982Z,3.02
2023-02-25T23:15:28.954Z,2.97
2023-02-25T23:19:30.068Z,2.95
2023-02-25T23:23:27.942Z,3.01
2023-02-25T23:27:25.990Z,3.11
2023-02-25T23:31:34.996Z,3.11
2023-02-25T23:35:33.060Z,3.12
2023-02-25T23:39:31.001Z,3.04
2023-02-25T23:43:28.970Z,2.99
2023-02-25T23:47:26.901Z,2.96
2023-02-25T23:51:24.912Z,2.94
2023-02-25T23:55:22.904Z,2.94
2023-02-25T23:59:21.918Z,2.92
